Air Navigation Services of Czech Republic
Airport: LKKV Updated:  20.02.2017 21:03:28  UTC
 METAR LKKV 20.02. 21:00 ...
METAR LKKV 202100Z 25011G21KT 3300 -RA BR OVC005 04/04 Q1012 R29///////=
 TAF LKKV 20.02. 17:00 ...
TAF LKKV 201700Z 2018/2200 24010KT 9999 BKN015      TEMPO 2018/2200 26014G24KT 4000 RA BKN010      PROB40 TEMPO 2018/2112 2000 RA BKN004=